createdAt,value
2023-03-08T00:00:46.455Z,7.83
2023-03-08T00:03:33.457Z,5.77
2023-03-08T00:06:21.447Z,6.50
2023-03-08T00:09:09.685Z,6.50
2023-03-08T00:11:56.663Z,5.90
2023-03-08T00:14:43.568Z,6.47
2023-03-08T00:17:30.468Z,6.03
2023-03-08T00:20:17.506Z,6.30
2023-03-08T00:23:04.562Z,6.13
2023-03-08T00:25:53.264Z,6.03
2023-03-08T00:28:40.820Z,6.33
2023-03-08T00:31:27.879Z,7.73
2023-03-08T00:34:15.267Z,5.20
2023-03-08T00:37:02.197Z,5.33
2023-03-08T00:39:53.042Z,5.30
2023-03-08T00:42:40.019Z,6.73
2023-03-08T00:45:27.185Z,5.23
2023-03-08T00:48:14.194Z,5.20
2023-03-08T00:51:01.443Z,5.93
2023-03-08T00:53:49.046Z,5.27
2023-03-08T00:56:36.054Z,4.90
2023-03-08T00:59:23.462Z,5.83
2023-03-08T01:02:10.836Z,7.17
2023-03-08T01:04:59.967Z,6.17
2023-03-08T01:07:47.001Z,5.30
2023-03-08T01:10:34.197Z,5.53
2023-03-08T01:13:21.474Z,7.10
2023-03-08T01:16:24.948Z,5.50
2023-03-08T01:19:12.089Z,5.63
2023-03-08T01:21:59.061Z,6.50
2023-03-08T01:24:47.247Z,5.67
2023-03-08T01:27:34.171Z,5.63
2023-03-08T01:30:21.524Z,5.20
2023-03-08T01:33:08.475Z,5.40
2023-03-08T01:35:55.540Z,5.13
2023-03-08T01:38:43.499Z,4.63
2023-03-08T01:41:32.201Z,5.67
2023-03-08T01:44:22.573Z,7.47
2023-03-08T01:47:19.076Z,5.80
2023-03-08T01:50:24.779Z,6.53
2023-03-08T01:53:13.337Z,6.20
2023-03-08T01:56:01.268Z,5.33
2023-03-08T01:58:50.962Z,5.90
2023-03-08T02:01:39.429Z,5.70
2023-03-08T02:04:26.670Z,5.87
2023-03-08T02:07:16.614Z,5.60
2023-03-08T02:10:05.024Z,5.17
2023-03-08T02:12:52.149Z,6.03
2023-03-08T02:15:39.550Z,5.80
2023-03-08T02:18:26.588Z,5.70
2023-03-08T02:21:13.599Z,6.30
2023-03-08T02:24:18.133Z,6.03
2023-03-08T02:27:11.054Z,5.47
2023-03-08T02:29:58.033Z,5.83
2023-03-08T02:32:45.023Z,6.27
2023-03-08T02:35:32.428Z,5.90
2023-03-08T02:38:21.002Z,6.00
2023-03-08T02:41:07.960Z,6.53
2023-03-08T02:43:56.657Z,5.87
2023-03-08T02:46:43.701Z,5.60
2023-03-08T02:49:30.642Z,5.57
2023-03-08T02:52:18.046Z,5.80
2023-03-08T02:55:05.443Z,5.67
2023-03-08T02:57:52.622Z,5.93
2023-03-08T03:00:40.520Z,6.83
2023-03-08T03:03:27.600Z,5.50
2023-03-08T03:06:20.006Z,5.53
2023-03-08T03:09:12.642Z,5.70
2023-03-08T03:11:59.732Z,5.93
2023-03-08T03:14:47.494Z,5.60
2023-03-08T03:17:37.077Z,6.30
2023-03-08T03:20:24.086Z,6.70
2023-03-08T03:23:11.444Z,6.80
2023-03-08T03:26:16.449Z,5.47
2023-03-08T03:29:04.397Z,5.67
2023-03-08T03:31:55.610Z,5.87
2023-03-08T03:34:43.269Z,6.63
2023-03-08T03:37:30.482Z,6.00
2023-03-08T03:40:17.755Z,5.77
2023-03-08T03:43:07.626Z,7.37
2023-03-08T03:45:56.218Z,6.10
2023-03-08T03:48:44.606Z,5.97
2023-03-08T03:51:32.594Z,6.20
2023-03-08T03:54:30.867Z,5.70
2023-03-08T03:57:20.557Z,6.33
2023-03-08T04:00:08.819Z,6.37
2023-03-08T04:03:00.492Z,6.00
2023-03-08T04:05:49.650Z,6.33
2023-03-08T04:08:42.275Z,5.37
2023-03-08T04:11:35.582Z,6.43
2023-03-08T04:14:23.105Z,5.53
2023-03-08T04:17:12.607Z,5.17
2023-03-08T04:20:06.111Z,6.90
2023-03-08T04:22:57.389Z,5.77
2023-03-08T04:25:51.126Z,6.00
2023-03-08T04:28:38.195Z,6.20
2023-03-08T04:31:28.584Z,5.90
2023-03-08T04:34:19.090Z,6.27
2023-03-08T04:37:12.860Z,5.90
2023-03-08T04:40:01.139Z,6.57
2023-03-08T04:42:49.029Z,6.40
2023-03-08T04:45:40.186Z,6.40
2023-03-08T04:48:32.075Z,5.30
2023-03-08T04:51:20.102Z,5.73
2023-03-08T04:54:09.027Z,6.13
2023-03-08T04:57:00.634Z,6.43
2023-03-08T04:59:47.653Z,5.73
2023-03-08T05:02:35.075Z,6.67
2023-03-08T05:05:23.051Z,6.10
2023-03-08T05:08:12.961Z,5.93
2023-03-08T05:11:01.496Z,6.10
2023-03-08T05:13:57.087Z,6.53
2023-03-08T05:16:45.635Z,6.43
2023-03-08T05:19:32.743Z,6.90
2023-03-08T05:22:19.909Z,6.67
2023-03-08T05:25:10.860Z,6.93
2023-03-08T05:27:58.020Z,6.93
2023-03-08T05:30:45.452Z,7.10
2023-03-08T05:33:33.541Z,6.70
2023-03-08T05:36:21.035Z,7.23
2023-03-08T05:39:11.476Z,7.00
2023-03-08T05:42:08.668Z,7.10
2023-03-08T05:45:00.031Z,7.40
2023-03-08T05:47:50.898Z,7.80
2023-03-08T05:50:38.685Z,8.07
2023-03-08T05:53:25.973Z,8.43
2023-03-08T05:56:18.243Z,7.60
2023-03-08T05:59:13.488Z,9.23
2023-03-08T06:02:00.717Z,7.70
2023-03-08T06:05:09.711Z,7.50
2023-03-08T06:07:56.715Z,8.10
2023-03-08T06:10:43.764Z,9.10
2023-03-08T06:13:31.008Z,7.93
2023-03-08T06:16:18.111Z,7.90
2023-03-08T06:19:05.113Z,7.07
2023-03-08T06:21:53.658Z,8.03
2023-03-08T06:24:40.790Z,7.77
2023-03-08T06:27:29.007Z,7.70
2023-03-08T06:30:19.080Z,8.63
2023-03-08T06:33:06.307Z,8.47
2023-03-08T06:36:08.769Z,7.90
2023-03-08T06:38:55.845Z,8.20
2023-03-08T06:41:42.817Z,9.00
2023-03-08T06:44:33.361Z,8.43
2023-03-08T06:47:20.330Z,10.30
2023-03-08T06:50:07.706Z,9.63
2023-03-08T06:52:57.011Z,8.70
2023-03-08T06:55:56.472Z,11.10
2023-03-08T06:58:44.124Z,9.80
2023-03-08T07:01:31.153Z,10.60
2023-03-08T07:04:18.427Z,12.90
2023-03-08T07:07:07.849Z,9.13
2023-03-08T07:09:54.905Z,8.40
2023-03-08T07:12:43.707Z,11.43
2023-03-08T07:15:30.700Z,9.20
2023-03-08T07:18:18.434Z,10.27
2023-03-08T07:21:06.484Z,11.00
2023-03-08T07:23:53.578Z,10.37
2023-03-08T07:26:40.558Z,10.80
2023-03-08T07:29:27.531Z,10.67
2023-03-08T07:32:14.666Z,10.67
2023-03-08T07:35:02.019Z,9.87
2023-03-08T07:37:48.964Z,9.87
2023-03-08T07:40:35.887Z,11.10
2023-03-08T07:43:23.859Z,10.43
2023-03-08T07:46:18.019Z,10.20
2023-03-08T07:49:10.347Z,11.17
2023-03-08T07:51:57.350Z,11.47
2023-03-08T07:54:44.302Z,12.30
2023-03-08T07:57:31.242Z,9.97
2023-03-08T08:00:18.772Z,12.60
2023-03-08T08:03:05.834Z,12.40
2023-03-08T08:05:52.831Z,9.63
2023-03-08T08:08:39.854Z,9.67
2023-03-08T08:11:27.437Z,10.40
2023-03-08T08:14:14.514Z,9.43
2023-03-08T08:17:01.510Z,11.17
2023-03-08T08:19:48.869Z,10.30
2023-03-08T08:22:37.337Z,10.33
2023-03-08T08:25:24.347Z,8.73
2023-03-08T08:28:11.314Z,9.13
2023-03-08T08:31:05.300Z,10.90
2023-03-08T08:33:52.627Z,10.63
2023-03-08T08:36:39.640Z,10.33
2023-03-08T08:39:26.597Z,12.30
2023-03-08T08:42:13.546Z,10.57
2023-03-08T08:45:00.503Z,10.27
2023-03-08T08:47:47.477Z,9.93
2023-03-08T08:50:34.400Z,10.87
2023-03-08T08:53:21.834Z,9.70
2023-03-08T08:56:26.001Z,12.27
2023-03-08T08:59:16.259Z,10.83
2023-03-08T09:02:03.235Z,9.40
2023-03-08T09:04:50.237Z,9.57
2023-03-08T09:07:39.263Z,11.00
2023-03-08T09:10:29.326Z,10.13
2023-03-08T09:13:16.342Z,9.87
2023-03-08T09:16:03.470Z,11.17
2023-03-08T09:18:51.013Z,9.73
2023-03-08T09:21:38.297Z,8.87
2023-03-08T09:24:25.291Z,9.97
2023-03-08T09:27:12.427Z,9.67
2023-03-08T09:29:59.385Z,10.47
2023-03-08T09:32:46.627Z,9.97
2023-03-08T09:35:34.224Z,10.63
2023-03-08T09:38:21.189Z,9.20
2023-03-08T09:41:25.658Z,9.50
2023-03-08T09:44:16.148Z,9.63
2023-03-08T09:47:19.402Z,11.23
2023-03-08T09:50:12.090Z,10.77
2023-03-08T09:53:14.482Z,10.67
2023-03-08T09:56:28.405Z,12.43
2023-03-08T09:59:28.411Z,10.20
2023-03-08T10:02:46.300Z,11.13
2023-03-08T10:05:40.325Z,10.87
2023-03-08T10:08:35.361Z,9.63
2023-03-08T10:11:43.923Z,11.20
2023-03-08T10:14:35.331Z,10.43
2023-03-08T10:17:39.420Z,10.30
2023-03-08T10:20:34.714Z,9.07
2023-03-08T10:23:22.679Z,9.80
2023-03-08T10:26:14.053Z,9.50
2023-03-08T10:29:01.011Z,9.07
2023-03-08T10:31:48.030Z,9.33
2023-03-08T10:34:35.189Z,9.70
2023-03-08T10:37:24.176Z,8.40
2023-03-08T10:40:18.850Z,8.40
2023-03-08T10:43:07.010Z,9.70
2023-03-08T10:46:03.528Z,11.87
2023-03-08T10:48:51.343Z,9.27
2023-03-08T10:51:38.400Z,8.70
2023-03-08T10:54:27.657Z,8.47
2023-03-08T10:57:19.525Z,9.40
2023-03-08T11:00:30.797Z,10.27
2023-03-08T11:03:22.128Z,9.00
2023-03-08T11:06:14.960Z,8.27
2023-03-08T11:09:04.415Z,8.97
2023-03-08T11:11:51.667Z,9.20
2023-03-08T11:14:38.850Z,8.87
2023-03-08T11:17:39.123Z,10.57
2023-03-08T11:20:41.480Z,8.90
2023-03-08T11:24:04.461Z,9.10
2023-03-08T11:27:16.193Z,7.97
2023-03-08T11:30:22.949Z,7.77
2023-03-08T11:33:36.967Z,8.70
2023-03-08T11:37:00.396Z,8.83
2023-03-08T11:40:14.345Z,10.60
2023-03-08T11:43:33.198Z,9.20
2023-03-08T11:46:57.962Z,8.57
2023-03-08T11:50:06.564Z,11.43
2023-03-08T11:53:25.280Z,9.67
2023-03-08T11:56:26.982Z,9.63
2023-03-08T11:59:24.915Z,8.80
2023-03-08T12:02:19.577Z,9.00
2023-03-08T12:05:22.332Z,8.10
2023-03-08T12:08:20.155Z,8.80
2023-03-08T12:11:32.330Z,9.30
2023-03-08T12:14:33.482Z,9.87
2023-03-08T12:17:32.549Z,9.17
2023-03-08T12:20:22.262Z,7.63
2023-03-08T12:23:12.235Z,9.60
2023-03-08T12:26:15.709Z,8.13
2023-03-08T12:29:16.772Z,9.23
2023-03-08T12:32:05.516Z,8.83
2023-03-08T12:35:07.462Z,8.60
2023-03-08T12:37:57.456Z,8.63
2023-03-08T12:40:53.558Z,9.17
2023-03-08T12:43:40.725Z,8.83
2023-03-08T12:46:28.290Z,8.17
2023-03-08T12:49:30.989Z,9.13
2023-03-08T12:52:17.922Z,8.20
2023-03-08T12:55:20.889Z,9.13
2023-03-08T12:58:17.313Z,7.57
2023-03-08T13:01:27.680Z,7.03
2023-03-08T13:04:41.354Z,8.43
2023-03-08T13:07:47.607Z,7.27
2023-03-08T13:10:37.775Z,7.53
2023-03-08T13:13:43.753Z,7.33
2023-03-08T13:16:37.155Z,8.20
2023-03-08T13:19:28.743Z,7.37
2023-03-08T13:22:48.699Z,7.10
2023-03-08T13:26:08.140Z,7.23
2023-03-08T13:28:56.151Z,6.93
2023-03-08T13:31:44.697Z,7.93
2023-03-08T13:34:34.123Z,7.07
2023-03-08T13:37:28.159Z,8.53
2023-03-08T13:40:18.968Z,9.23
2023-03-08T13:43:08.545Z,7.47
2023-03-08T13:45:59.422Z,6.87
2023-03-08T13:48:46.526Z,8.00
2023-03-08T13:51:33.501Z,7.37
2023-03-08T13:54:29.694Z,7.50
2023-03-08T13:57:26.706Z,6.67
2023-03-08T14:00:25.462Z,5.93
2023-03-08T14:03:20.506Z,6.43
2023-03-08T14:06:33.658Z,6.47
2023-03-08T14:09:21.190Z,6.27
2023-03-08T14:12:08.349Z,5.37
2023-03-08T14:14:58.580Z,6.13
2023-03-08T14:17:45.702Z,6.03
2023-03-08T14:20:32.723Z,6.20
2023-03-08T14:23:24.877Z,6.00
2023-03-08T14:26:30.437Z,5.97
2023-03-08T14:29:21.651Z,5.87
2023-03-08T14:32:11.733Z,5.80
2023-03-08T14:35:34.519Z,5.53
2023-03-08T14:38:25.975Z,5.77
2023-03-08T14:41:15.915Z,5.73
2023-03-08T14:44:04.952Z,5.07
2023-03-08T14:46:58.322Z,4.80
2023-03-08T14:50:14.298Z,4.93
2023-03-08T14:53:02.940Z,4.50
2023-03-08T14:55:49.862Z,4.40
2023-03-08T14:58:40.338Z,4.27
2023-03-08T15:01:29.043Z,3.93
2023-03-08T15:04:19.922Z,4.40
2023-03-08T15:07:07.459Z,3.50
2023-03-08T15:09:54.423Z,3.73
2023-03-08T15:12:41.397Z,3.63
2023-03-08T15:15:28.571Z,3.53
2023-03-08T15:18:15.530Z,3.23
2023-03-08T15:21:03.029Z,3.00
2023-03-08T15:23:51.080Z,4.33
2023-03-08T15:26:38.012Z,2.73
2023-03-08T15:29:28.346Z,2.40
2023-03-08T15:32:15.294Z,2.33
2023-03-08T15:35:02.276Z,1.90
2023-03-08T15:37:49.573Z,2.17
2023-03-08T15:40:36.614Z,2.13
2023-03-08T15:43:23.614Z,1.70
2023-03-08T15:46:14.995Z,1.40
2023-03-08T15:49:02.563Z,1.60
2023-03-08T15:51:49.530Z,1.37
2023-03-08T15:54:36.524Z,1.27
2023-03-08T15:57:23.590Z,1.47
2023-03-08T16:00:13.204Z,1.20
2023-03-08T16:03:00.285Z,1.90
2023-03-08T16:05:47.487Z,1.30
2023-03-08T16:08:36.599Z,1.30
2023-03-08T16:11:23.759Z,1.40
2023-03-08T16:14:10.773Z,1.13
2023-03-08T16:16:57.748Z,1.20
2023-03-08T16:19:44.821Z,1.10
2023-03-08T16:22:33.296Z,1.00
2023-03-08T16:25:22.510Z,1.23
2023-03-08T16:28:10.675Z,1.50
2023-03-08T16:30:57.934Z,2.17
2023-03-08T16:33:44.956Z,1.30
2023-03-08T16:36:32.916Z,1.30
2023-03-08T16:39:20.580Z,1.40
2023-03-08T16:42:11.859Z,1.20
2023-03-08T16:44:59.035Z,1.20
2023-03-08T16:47:46.410Z,1.10
2023-03-08T16:50:33.363Z,1.30
2023-03-08T16:53:20.384Z,1.03
2023-03-08T16:56:07.534Z,1.20
2023-03-08T16:58:56.934Z,1.00
2023-03-08T17:01:47.256Z,0.90
2023-03-08T17:04:34.197Z,1.07
2023-03-08T17:07:21.262Z,1.00
2023-03-08T17:10:09.081Z,1.00
2023-03-08T17:12:56.057Z,1.10
2023-03-08T17:15:46.826Z,0.87
2023-03-08T17:18:33.802Z,1.03
2023-03-08T17:21:22.352Z,1.00
2023-03-08T17:24:12.866Z,0.90
2023-03-08T17:26:59.914Z,1.00
2023-03-08T17:29:46.852Z,1.00
2023-03-08T17:32:33.886Z,1.10
2023-03-08T17:35:20.966Z,0.90
2023-03-08T17:38:08.656Z,1.07
2023-03-08T17:40:55.592Z,0.70
2023-03-08T17:43:42.652Z,0.63
2023-03-08T17:46:29.725Z,0.70
2023-03-08T17:49:23.105Z,0.80
2023-03-08T17:52:10.154Z,0.70
2023-03-08T17:54:57.338Z,0.70
2023-03-08T17:57:44.313Z,2.07
2023-03-08T18:00:31.349Z,0.60
2023-03-08T18:03:18.527Z,0.70
2023-03-08T18:06:06.089Z,1.47
2023-03-08T18:08:53.363Z,0.83
2023-03-08T18:11:41.422Z,2.83
2023-03-08T18:14:39.182Z,0.83
2023-03-08T18:17:26.958Z,0.80
2023-03-08T18:20:14.414Z,1.27
2023-03-08T18:23:01.574Z,0.90
2023-03-08T18:25:48.746Z,1.07
2023-03-08T18:28:36.476Z,0.93
2023-03-08T18:31:26.302Z,1.10
2023-03-08T18:34:13.624Z,1.47
2023-03-08T18:37:00.621Z,0.90
2023-03-08T18:39:53.041Z,0.87
2023-03-08T18:42:40.557Z,0.87
2023-03-08T18:45:27.923Z,1.00
2023-03-08T18:48:14.897Z,1.00
2023-03-08T18:51:01.974Z,0.67
2023-03-08T18:53:49.231Z,0.90
2023-03-08T18:56:36.330Z,0.90
2023-03-08T18:59:23.416Z,0.83
2023-03-08T19:02:12.015Z,0.70
2023-03-08T19:04:59.032Z,0.67
2023-03-08T19:07:46.818Z,0.70
2023-03-08T19:10:33.943Z,0.60
2023-03-08T19:13:20.983Z,0.50
2023-03-08T19:16:25.626Z,0.50
2023-03-08T19:19:14.913Z,0.70
2023-03-08T19:22:04.034Z,0.63
2023-03-08T19:24:51.051Z,0.50
2023-03-08T19:27:38.156Z,0.80
2023-03-08T19:30:28.273Z,0.60
2023-03-08T19:33:29.786Z,0.77
2023-03-08T19:36:18.015Z,0.60
2023-03-08T19:39:07.985Z,0.70
2023-03-08T19:41:58.583Z,0.70
2023-03-08T19:44:48.473Z,0.87
2023-03-08T19:47:35.667Z,0.80
2023-03-08T19:50:22.791Z,1.00
2023-03-08T19:53:09.797Z,0.93
2023-03-08T19:55:56.811Z,0.90
2023-03-08T19:58:45.165Z,0.87
2023-03-08T20:01:32.448Z,1.07
2023-03-08T20:04:20.507Z,0.63
2023-03-08T20:07:07.860Z,1.13
2023-03-08T20:09:55.686Z,0.87
2023-03-08T20:12:43.658Z,1.10
2023-03-08T20:15:32.129Z,1.43
2023-03-08T20:18:19.082Z,1.10
2023-03-08T20:21:06.182Z,1.17
2023-03-08T20:23:57.476Z,1.10
2023-03-08T20:26:45.462Z,1.10
2023-03-08T20:29:32.814Z,1.23
2023-03-08T20:32:19.889Z,1.00
2023-03-08T20:35:08.026Z,0.80
2023-03-08T20:37:55.033Z,1.07
2023-03-08T20:40:42.020Z,0.90
2023-03-08T20:43:30.019Z,0.87
2023-03-08T20:46:19.161Z,0.70
2023-03-08T20:49:06.154Z,0.80
2023-03-08T20:51:53.102Z,0.80
2023-03-08T20:54:40.218Z,0.83
2023-03-08T20:57:27.441Z,0.73
2023-03-08T21:00:15.002Z,0.70
2023-03-08T21:03:01.953Z,0.60
2023-03-08T21:05:49.212Z,0.60
2023-03-08T21:08:36.173Z,0.70
2023-03-08T21:11:23.411Z,0.40
2023-03-08T21:14:11.357Z,0.60
2023-03-08T21:16:58.329Z,0.60
2023-03-08T21:19:45.332Z,0.60
2023-03-08T21:22:32.498Z,0.50
2023-03-08T21:25:19.506Z,0.60
2023-03-08T21:28:06.434Z,0.40
2023-03-08T21:30:53.439Z,0.60
2023-03-08T21:33:40.509Z,0.87
2023-03-08T21:36:27.630Z,0.50
2023-03-08T21:39:14.662Z,1.13
2023-03-08T21:42:01.684Z,0.50
2023-03-08T21:44:48.609Z,0.50
2023-03-08T21:47:35.519Z,0.70
2023-03-08T21:50:22.799Z,0.53
2023-03-08T21:53:09.765Z,0.60
2023-03-08T21:55:56.981Z,1.17
2023-03-08T21:58:44.870Z,0.50
2023-03-08T22:01:32.092Z,0.90
2023-03-08T22:04:19.065Z,1.50
2023-03-08T22:07:06.036Z,0.90
2023-03-08T22:09:52.963Z,0.80
2023-03-08T22:12:41.400Z,1.10
2023-03-08T22:15:28.628Z,0.80
2023-03-08T22:18:15.601Z,0.70
2023-03-08T22:21:02.663Z,1.00
2023-03-08T22:23:51.719Z,0.90
2023-03-08T22:26:38.729Z,0.73
2023-03-08T22:29:25.796Z,0.80
2023-03-08T22:32:12.731Z,0.90
2023-03-08T22:34:59.715Z,0.90
2023-03-08T22:37:46.697Z,0.77
2023-03-08T22:40:38.229Z,1.80
2023-03-08T22:43:26.455Z,1.10
2023-03-08T22:46:20.794Z,1.17
2023-03-08T22:49:11.585Z,1.00
2023-03-08T22:51:58.523Z,1.00
2023-03-08T22:54:45.567Z,1.23
2023-03-08T22:57:36.234Z,2.47
2023-03-08T23:00:23.394Z,1.20
2023-03-08T23:03:10.682Z,2.60
2023-03-08T23:05:57.668Z,1.13
2023-03-08T23:08:44.971Z,1.13
2023-03-08T23:11:32.734Z,1.73
2023-03-08T23:14:19.672Z,1.07
2023-03-08T23:17:06.609Z,1.30
2023-03-08T23:19:53.553Z,1.13
2023-03-08T23:22:40.759Z,1.00
2023-03-08T23:25:28.540Z,1.13
2023-03-08T23:28:15.524Z,0.90
2023-03-08T23:31:16.571Z,1.13
2023-03-08T23:34:05.525Z,0.93
2023-03-08T23:36:52.591Z,1.00
2023-03-08T23:39:39.652Z,1.13
2023-03-08T23:42:26.637Z,1.10
2023-03-08T23:45:13.699Z,1.10
2023-03-08T23:48:03.177Z,1.20
2023-03-08T23:50:50.329Z,1.00
2023-03-08T23:53:37.440Z,1.10
2023-03-08T23:56:30.866Z,2.50
2023-03-08T23:59:20.333Z,1.33
